createdAt,value
2018-10-11T00:00:02.335Z,97828.22
2018-10-11T00:02:31.157Z,97832.88
2018-10-11T00:05:00.303Z,97823.17
2018-10-11T00:07:28.888Z,97817.65
2018-10-11T00:09:57.763Z,97813.19
2018-10-11T00:12:26.582Z,97814.02
2018-10-11T00:14:55.316Z,97813.63
2018-10-11T00:17:24.087Z,97825.21
2018-10-11T00:19:52.791Z,97833.17
2018-10-11T00:22:21.563Z,97829.42
2018-10-11T00:24:50.306Z,97823.56
2018-10-11T00:27:19.252Z,97821.87
2018-10-11T00:29:48.023Z,97815.58
2018-10-11T00:32:16.783Z,97816.15
2018-10-11T00:34:45.433Z,97823.45
2018-10-11T00:37:14.891Z,97823.93
2018-10-11T00:39:43.502Z,97812.44
2018-10-11T00:42:12.943Z,97814.42
2018-10-11T00:44:41.952Z,97815.05
2018-10-11T00:47:10.699Z,97818.80
2018-10-11T00:49:39.381Z,97810.83
2018-10-11T00:52:08.802Z,97808.20
2018-10-11T00:54:37.457Z,97806.77
2018-10-11T00:57:06.697Z,97808.41
2018-10-11T00:59:35.391Z,97803.34
2018-10-11T01:02:04.079Z,97808.97
2018-10-11T01:04:32.787Z,97798.80
2018-10-11T01:07:01.719Z,97804.27
2018-10-11T01:09:31.570Z,97804.30
2018-10-11T01:12:00.735Z,97801.41
2018-10-11T01:14:29.903Z,97797.38
2018-10-11T01:16:58.901Z,97798.70
2018-10-11T01:19:28.672Z,97800.91
2018-10-11T01:21:57.397Z,97810.95
2018-10-11T01:24:26.178Z,97798.78
2018-10-11T01:26:55.847Z,97793.18
2018-10-11T01:29:25.517Z,97789.95
2018-10-11T01:31:54.316Z,97788.49
2018-10-11T01:34:23.529Z,97795.54
2018-10-11T01:36:53.054Z,97792.36
2018-10-11T01:39:21.679Z,97785.02
2018-10-11T01:41:50.337Z,97785.84
2018-10-11T01:44:19.059Z,97787.20
2018-10-11T01:46:47.769Z,97792.06
2018-10-11T01:49:16.441Z,97795.47
2018-10-11T01:51:45.150Z,97783.87
2018-10-11T01:54:14.264Z,97780.64
2018-10-11T01:56:43.274Z,97786.81
2018-10-11T01:59:12.654Z,97790.04
2018-10-11T02:01:42.218Z,97788.73
2018-10-11T02:04:12.234Z,97789.33
2018-10-11T02:06:40.952Z,97787.71
2018-10-11T02:09:09.617Z,97785.55
2018-10-11T02:11:39.028Z,97783.20
2018-10-11T02:14:07.772Z,97780.79
2018-10-11T02:16:36.407Z,97775.77
2018-10-11T02:19:05.094Z,97777.58
2018-10-11T02:21:33.937Z,97782.97
2018-10-11T02:24:03.042Z,97781.34
2018-10-11T02:26:31.799Z,97782.13
2018-10-11T02:29:00.580Z,97781.28
2018-10-11T02:31:30.024Z,97776.94
2018-10-11T02:33:59.002Z,97774.18
2018-10-11T02:36:28.434Z,97771.53
2018-10-11T02:38:57.437Z,97767.81
2018-10-11T02:41:26.052Z,97777.56
2018-10-11T02:43:55.133Z,97771.74
2018-10-11T02:46:23.887Z,97776.93
2018-10-11T02:48:52.549Z,97770.48
2018-10-11T02:51:22.050Z,97773.71
2018-10-11T02:53:50.807Z,97769.14
2018-10-11T02:56:20.614Z,97766.72
2018-10-11T02:59:01.147Z,97760.58
2018-10-11T03:01:30.342Z,97762.17
2018-10-11T03:04:04.320Z,97766.80
2018-10-11T03:06:35.323Z,97776.52
2018-10-11T03:09:05.040Z,97777.58
2018-10-11T03:11:33.879Z,97775.20
2018-10-11T03:14:03.164Z,97767.48
2018-10-11T03:16:32.020Z,97775.51
2018-10-11T03:19:00.729Z,97777.39
2018-10-11T03:21:29.520Z,97780.39
2018-10-11T03:24:02.108Z,97781.73
2018-10-11T03:26:31.244Z,97784.71
2018-10-11T03:29:00.114Z,97782.55
2018-10-11T03:31:29.244Z,97783.16
2018-10-11T03:33:57.920Z,97775.03
2018-10-11T03:36:26.735Z,97780.48
2018-10-11T03:38:56.313Z,97773.52
2018-10-11T03:41:25.579Z,97775.73
2018-10-11T03:43:54.231Z,97781.33
2018-10-11T03:46:23.004Z,97781.88
2018-10-11T03:48:52.163Z,97782.98
2018-10-11T03:51:20.688Z,97776.30
2018-10-11T03:53:49.533Z,97778.67
2018-10-11T03:56:18.981Z,97775.25
2018-10-11T03:58:47.760Z,97777.97
2018-10-11T04:01:17.700Z,97780.39
2018-10-11T04:03:46.714Z,97776.93
2018-10-11T04:06:15.724Z,97783.39
2018-10-11T04:08:44.965Z,97782.89
2018-10-11T04:11:13.815Z,97781.53
2018-10-11T04:13:42.878Z,97774.31
2018-10-11T04:16:11.906Z,97778.64
2018-10-11T04:18:41.049Z,97775.16
2018-10-11T04:21:10.263Z,97772.22
2018-10-11T04:23:39.328Z,97778.38
2018-10-11T04:26:08.067Z,97773.28
2018-10-11T04:28:36.849Z,97780.81
2018-10-11T04:31:05.982Z,97774.38
2018-10-11T04:33:34.701Z,97780.56
2018-10-11T04:36:03.496Z,97789.45
2018-10-11T04:38:32.625Z,97789.19
2018-10-11T04:41:02.493Z,97786.45
2018-10-11T04:43:31.135Z,97786.75
2018-10-11T04:46:00.355Z,97786.74
2018-10-11T04:48:29.594Z,97790.83
2018-10-11T04:50:58.722Z,97796.49
2018-10-11T04:53:27.369Z,97798.36
2018-10-11T04:55:56.011Z,97793.52
2018-10-11T04:58:25.499Z,97793.80
2018-10-11T05:00:54.440Z,97804.30
2018-10-11T05:03:23.758Z,97804.31
2018-10-11T05:05:52.374Z,97791.47
2018-10-11T05:08:21.143Z,97795.45
2018-10-11T05:10:50.630Z,97806.98
2018-10-11T05:13:19.698Z,97802.97
2018-10-11T05:15:49.119Z,97801.34
2018-10-11T05:18:18.228Z,97805.12
2018-10-11T05:20:47.128Z,97802.72
2018-10-11T05:23:15.870Z,97801.91
2018-10-11T05:25:45.654Z,97807.03
2018-10-11T05:28:14.321Z,97806.50
2018-10-11T05:30:45.870Z,97820.19
2018-10-11T05:33:15.958Z,97823.13
2018-10-11T05:35:45.064Z,97831.69
2018-10-11T05:38:14.083Z,97823.93
2018-10-11T05:40:42.884Z,97833.84
2018-10-11T05:43:13.364Z,97834.66
2018-10-11T05:45:43.660Z,97829.02
2018-10-11T05:48:12.885Z,97831.72
2018-10-11T05:50:41.820Z,97834.66
2018-10-11T05:53:12.044Z,97829.57
2018-10-11T05:55:41.715Z,97834.38
2018-10-11T05:58:10.809Z,97837.86
2018-10-11T06:00:39.993Z,97848.31
2018-10-11T06:03:08.874Z,97842.91
2018-10-11T06:05:37.649Z,97842.91
2018-10-11T06:08:06.812Z,97843.44
2018-10-11T06:10:37.259Z,97842.38
2018-10-11T06:13:07.350Z,97851.80
2018-10-11T06:15:37.260Z,97856.35
2018-10-11T06:18:06.069Z,97856.31
2018-10-11T06:20:34.786Z,97863.02
2018-10-11T06:23:03.789Z,97864.04
2018-10-11T06:25:32.388Z,97863.75
2018-10-11T06:28:01.425Z,97876.38
2018-10-11T06:30:31.059Z,97875.84
2018-10-11T06:33:00.207Z,97887.63
2018-10-11T06:35:29.360Z,97884.08
2018-10-11T06:37:59.290Z,97881.86
2018-10-11T06:40:28.324Z,97877.52
2018-10-11T06:42:57.746Z,97873.78
2018-10-11T06:45:26.955Z,97883.47
2018-10-11T06:47:58.173Z,97891.98
2018-10-11T06:50:26.979Z,97889.22
2018-10-11T06:52:55.609Z,97898.56
2018-10-11T06:55:24.919Z,97897.94
2018-10-11T06:57:54.336Z,97894.62
2018-10-11T07:00:23.210Z,97904.77
2018-10-11T07:02:52.124Z,97909.02
2018-10-11T07:05:20.991Z,97917.80
2018-10-11T07:07:49.894Z,97922.30
2018-10-11T07:10:18.827Z,97921.13
2018-10-11T07:12:47.498Z,97929.91
2018-10-11T07:15:16.605Z,97934.11
2018-10-11T07:17:45.575Z,97945.27
2018-10-11T07:20:14.444Z,97940.02
2018-10-11T07:22:43.381Z,97934.77
2018-10-11T07:25:12.558Z,97941.35
2018-10-11T07:27:41.396Z,97946.05
2018-10-11T07:30:10.279Z,97953.17
2018-10-11T07:32:39.258Z,97954.11
2018-10-11T07:35:08.031Z,97956.34
2018-10-11T07:37:36.734Z,97956.67
2018-10-11T07:40:05.935Z,97951.56
2018-10-11T07:42:35.199Z,97963.28
2018-10-11T07:45:04.473Z,97953.30
2018-10-11T07:47:33.284Z,97952.34
2018-10-11T07:50:02.819Z,97959.53
2018-10-11T07:52:31.944Z,97963.78
2018-10-11T07:55:01.324Z,97970.06
2018-10-11T07:57:30.164Z,97969.34
2018-10-11T07:59:59.686Z,97980.45
2018-10-11T08:02:28.667Z,97980.20
2018-10-11T08:04:57.405Z,97986.83
2018-10-11T08:07:26.152Z,97985.06
2018-10-11T08:09:54.936Z,97975.52
2018-10-11T08:12:23.791Z,97978.77
2018-10-11T08:14:52.772Z,97983.22
2018-10-11T08:17:21.735Z,97993.17
2018-10-11T08:19:50.894Z,98001.67
2018-10-11T08:22:20.050Z,98008.73
2018-10-11T08:24:48.774Z,98010.44
2018-10-11T08:27:17.329Z,98009.43
2018-10-11T08:29:46.164Z,98016.08
2018-10-11T08:32:15.017Z,98017.08
2018-10-11T08:34:43.999Z,98009.69
2018-10-11T08:37:13.361Z,98012.47
2018-10-11T08:39:41.996Z,98024.48
2018-10-11T08:42:10.746Z,98022.89
2018-10-11T08:44:39.507Z,98020.09
2018-10-11T08:47:08.306Z,98025.95
2018-10-11T08:49:37.279Z,98019.50
2018-10-11T08:52:06.865Z,98016.95
2018-10-11T08:54:41.043Z,98007.64
2018-10-11T08:57:09.945Z,98019.20
2018-10-11T08:59:39.142Z,98019.17
2018-10-11T09:02:08.596Z,98019.83
2018-10-11T09:04:37.607Z,98017.20
2018-10-11T09:07:07.742Z,98021.84
2018-10-11T09:09:36.980Z,98021.24
2018-10-11T09:12:06.185Z,98026.16
2018-10-11T09:14:35.185Z,98033.14
2018-10-11T09:17:04.830Z,98030.64
2018-10-11T09:19:33.630Z,98033.66
2018-10-11T09:22:03.252Z,98031.69
2018-10-11T09:24:32.340Z,98034.16
2018-10-11T09:27:01.334Z,98037.08
2018-10-11T09:29:29.956Z,98038.66
2018-10-11T09:31:58.732Z,98032.88
2018-10-11T09:34:27.535Z,98041.77
2018-10-11T09:36:56.707Z,98029.77
2018-10-11T09:39:25.299Z,98024.86
2018-10-11T09:41:54.875Z,98023.82
2018-10-11T09:44:25.125Z,98019.46
2018-10-11T09:46:54.633Z,98024.67
2018-10-11T09:49:23.552Z,98024.88
2018-10-11T09:51:52.730Z,98010.53
2018-10-11T09:54:21.433Z,98013.44
2018-10-11T09:57:11.766Z,98017.31
2018-10-11T09:59:41.087Z,98017.78
2018-10-11T10:02:11.032Z,98020.98
2018-10-11T10:04:42.600Z,98020.70
2018-10-11T10:07:11.794Z,98023.50
2018-10-11T10:09:41.275Z,98024.22
2018-10-11T10:12:10.574Z,98019.83
2018-10-11T10:14:40.085Z,98027.85
2018-10-11T10:17:08.877Z,98020.14
2018-10-11T10:19:38.072Z,98013.94
2018-10-11T10:22:06.929Z,98011.34
2018-10-11T10:24:35.711Z,98008.56
2018-10-11T10:27:03.629Z,98005.85
2018-10-11T10:29:32.853Z,97997.84
2018-10-11T10:32:02.736Z,98002.09
2018-10-11T10:34:32.170Z,98005.09
2018-10-11T10:37:00.902Z,98003.68
2018-10-11T10:39:29.725Z,97996.64
2018-10-11T10:41:58.771Z,97996.66
2018-10-11T10:44:27.654Z,97989.59
2018-10-11T10:46:56.329Z,97989.41
2018-10-11T10:49:26.572Z,97991.94
2018-10-11T10:51:56.640Z,97986.11
2018-10-11T10:54:28.407Z,97992.56
2018-10-11T10:56:57.830Z,97978.80
2018-10-11T10:59:27.400Z,97983.07
2018-10-11T11:01:56.390Z,97981.45
2018-10-11T11:04:25.369Z,97977.08
2018-10-11T11:06:54.101Z,97969.67
2018-10-11T11:09:23.140Z,97971.63
2018-10-11T11:11:52.351Z,97971.52
2018-10-11T11:14:21.601Z,97964.19
2018-10-11T11:16:50.800Z,97965.48
2018-10-11T11:19:18.902Z,97956.53
2018-10-11T11:21:48.081Z,97960.47
2018-10-11T11:24:16.275Z,97961.39
2018-10-11T11:26:44.607Z,97954.38
2018-10-11T11:29:12.896Z,97957.73
2018-10-11T11:31:41.694Z,97958.59
2018-10-11T11:34:11.601Z,97955.07
2018-10-11T11:36:40.591Z,97953.89
2018-10-11T11:39:10.383Z,97951.48
2018-10-11T11:41:40.017Z,97947.17
2018-10-11T11:44:09.234Z,97948.67
2018-10-11T11:46:37.497Z,97945.15
2018-10-11T11:49:05.712Z,97940.22
2018-10-11T11:51:35.067Z,97936.33
2018-10-11T11:54:05.093Z,97938.53
2018-10-11T11:56:35.547Z,97941.94
2018-10-11T11:59:04.363Z,97940.57
2018-10-11T12:01:33.131Z,97940.77
2018-10-11T12:04:02.013Z,97934.13
2018-10-11T12:06:31.237Z,97936.83
2018-10-11T12:09:00.173Z,97929.23
2018-10-11T12:11:28.897Z,97927.86
2018-10-11T12:13:57.907Z,97921.41
2018-10-11T12:16:27.268Z,97915.25
2018-10-11T12:18:56.523Z,97912.77
2018-10-11T12:21:25.966Z,97917.69
2018-10-11T12:23:55.416Z,97916.45
2018-10-11T12:26:24.391Z,97916.92
2018-10-11T12:28:53.465Z,97915.67
2018-10-11T12:31:22.413Z,97919.61
2018-10-11T12:33:51.707Z,97917.89
2018-10-11T12:36:21.154Z,97914.91
2018-10-11T12:38:50.481Z,97910.57
2018-10-11T12:41:19.021Z,97910.43
2018-10-11T12:43:48.081Z,97912.72
2018-10-11T12:46:16.851Z,97904.97
2018-10-11T12:48:46.447Z,97916.34
2018-10-11T12:51:15.273Z,97908.84
2018-10-11T12:53:47.483Z,97907.84
2018-10-11T12:56:13.074Z,97902.56
2018-10-11T12:58:42.088Z,97900.83
2018-10-11T13:01:11.857Z,97903.41
2018-10-11T13:03:40.437Z,97901.02
2018-10-11T13:06:09.358Z,97895.59
2018-10-11T13:08:38.026Z,97898.75
2018-10-11T13:11:06.922Z,97902.73
2018-10-11T13:13:35.567Z,97903.00
2018-10-11T13:16:05.130Z,97901.31
2018-10-11T13:18:34.432Z,97895.98
2018-10-11T13:21:03.921Z,97904.47
2018-10-11T13:23:32.746Z,97900.64
2018-10-11T13:26:01.602Z,97904.33
2018-10-11T13:28:30.941Z,97904.44
2018-10-11T13:31:00.039Z,97897.48
2018-10-11T13:33:29.157Z,97897.30
2018-10-11T13:35:58.067Z,97889.50
2018-10-11T13:38:27.771Z,97893.06
2018-10-11T13:40:59.550Z,97893.77
2018-10-11T13:43:25.191Z,97900.38
2018-10-11T13:45:56.975Z,97900.05
2018-10-11T13:48:23.047Z,97896.63
2018-10-11T13:50:51.608Z,97900.86
2018-10-11T13:53:23.686Z,97904.92
2018-10-11T13:55:53.619Z,97902.53
2018-10-11T13:58:19.762Z,97904.83
2018-10-11T14:00:48.611Z,97909.32
2018-10-11T14:03:17.532Z,97905.63
2018-10-11T14:05:47.271Z,97901.70
2018-10-11T14:08:16.343Z,97904.48
2018-10-11T14:10:45.193Z,97907.67
2018-10-11T14:13:15.772Z,97909.86
2018-10-11T14:15:42.968Z,97909.73
2018-10-11T14:18:12.729Z,97905.63
2018-10-11T14:20:41.582Z,97905.61
2018-10-11T14:23:10.377Z,97901.84
2018-10-11T14:25:39.072Z,97903.05
2018-10-11T14:28:07.977Z,97906.20
2018-10-11T14:30:36.728Z,97902.45
2018-10-11T14:33:05.578Z,97907.34
2018-10-11T14:35:34.601Z,97900.50
2018-10-11T14:38:03.337Z,97904.47
2018-10-11T14:40:32.461Z,97904.58
2018-10-11T14:43:01.470Z,97904.00
2018-10-11T14:45:31.110Z,97910.13
2018-10-11T14:48:00.217Z,97908.57
2018-10-11T14:50:30.036Z,97906.20
2018-10-11T14:52:58.626Z,97904.59
2018-10-11T14:55:27.952Z,97901.83
2018-10-11T14:57:56.787Z,97900.66
2018-10-11T15:00:26.252Z,97902.64
2018-10-11T15:02:55.927Z,97900.27
2018-10-11T15:05:24.611Z,97906.77
2018-10-11T15:07:53.491Z,97902.52
2018-10-11T15:10:22.299Z,97904.00
2018-10-11T15:12:51.071Z,97904.16
2018-10-11T15:15:20.636Z,97906.52
2018-10-11T15:17:49.634Z,97908.39
2018-10-11T15:20:18.536Z,97909.45
2018-10-11T15:22:48.301Z,97907.89
2018-10-11T15:25:17.452Z,97916.73
2018-10-11T15:27:46.562Z,97915.63
2018-10-11T15:30:15.802Z,97914.82
2018-10-11T15:32:44.897Z,97908.04
2018-10-11T15:35:13.862Z,97908.70
2018-10-11T15:37:42.652Z,97902.80
2018-10-11T15:40:11.668Z,97903.80
2018-10-11T15:42:40.272Z,97910.39
2018-10-11T15:45:10.431Z,97912.86
2018-10-11T15:47:39.457Z,97914.67
2018-10-11T15:50:08.423Z,97910.69
2018-10-11T15:52:37.506Z,97912.77
2018-10-11T15:55:06.184Z,97918.79
2018-10-11T15:57:35.211Z,97919.19
2018-10-11T16:00:04.457Z,97913.34
2018-10-11T16:02:33.433Z,97916.41
2018-10-11T16:05:03.247Z,97919.31
2018-10-11T16:07:32.121Z,97925.70
2018-10-11T16:10:00.862Z,97928.14
2018-10-11T16:12:29.728Z,97933.80
2018-10-11T16:14:58.529Z,97925.34
2018-10-11T16:17:28.187Z,97929.61
2018-10-11T16:19:57.206Z,97930.39
2018-10-11T16:22:25.995Z,97937.58
2018-10-11T16:24:54.751Z,97934.86
2018-10-11T16:27:23.527Z,97937.42
2018-10-11T16:29:52.348Z,97945.45
2018-10-11T16:32:21.517Z,97950.79
2018-10-11T16:34:51.832Z,97951.19
2018-10-11T16:37:21.007Z,97963.31
2018-10-11T16:39:50.560Z,97954.11
2018-10-11T16:42:19.448Z,97956.58
2018-10-11T16:44:48.413Z,97954.23
2018-10-11T16:47:18.703Z,97955.48
2018-10-11T16:49:48.212Z,97957.54
2018-10-11T16:52:17.203Z,97952.41
2018-10-11T16:54:46.492Z,97962.03
2018-10-11T16:57:16.583Z,97963.48
2018-10-11T16:59:47.080Z,97966.53
2018-10-11T17:02:15.930Z,97968.91
2018-10-11T17:04:44.569Z,97975.92
2018-10-11T17:07:13.562Z,97975.03
2018-10-11T17:09:42.750Z,97977.69
2018-10-11T17:12:11.662Z,97978.69
2018-10-11T17:14:41.135Z,97987.39
2018-10-11T17:17:10.790Z,97982.59
2018-10-11T17:19:39.707Z,97993.55
2018-10-11T17:22:08.893Z,97986.77
2018-10-11T17:24:37.684Z,97991.62
2018-10-11T17:27:07.451Z,97990.48
2018-10-11T17:29:37.175Z,97994.83
2018-10-11T17:32:06.232Z,97995.53
2018-10-11T17:34:36.027Z,97999.05
2018-10-11T17:37:05.353Z,97995.97
2018-10-11T17:39:34.464Z,97996.56
2018-10-11T17:42:03.618Z,97999.64
2018-10-11T17:44:33.898Z,98001.69
2018-10-11T17:47:02.752Z,97998.63
2018-10-11T17:49:31.567Z,98006.94
2018-10-11T17:52:00.522Z,98006.81
2018-10-11T17:54:29.582Z,98014.70
2018-10-11T17:56:59.823Z,98014.73
2018-10-11T17:59:28.774Z,98013.13
2018-10-11T18:01:58.371Z,98010.40
2018-10-11T18:04:27.250Z,98020.20
2018-10-11T18:06:56.019Z,98011.77
2018-10-11T18:09:25.229Z,98011.77
2018-10-11T18:11:54.118Z,98018.36
2018-10-11T18:14:23.084Z,98020.51
2018-10-11T18:16:51.899Z,98026.25
2018-10-11T18:19:21.093Z,98023.52
2018-10-11T18:21:50.222Z,98024.61
2018-10-11T18:24:20.002Z,98020.61
2018-10-11T18:26:49.489Z,98023.91
2018-10-11T18:29:18.957Z,98027.66
2018-10-11T18:31:48.028Z,98033.01
2018-10-11T18:34:17.279Z,98039.28
2018-10-11T18:36:46.329Z,98042.63
2018-10-11T18:39:16.001Z,98051.02
2018-10-11T18:41:44.874Z,98045.22
2018-10-11T18:44:13.995Z,98046.26
2018-10-11T18:46:43.279Z,98042.58
2018-10-11T18:49:12.633Z,98042.36
2018-10-11T18:51:41.840Z,98042.02
2018-10-11T18:54:11.232Z,98047.92
2018-10-11T18:56:40.445Z,98051.12
2018-10-11T18:59:09.538Z,98060.91
2018-10-11T19:01:38.718Z,98050.76
2018-10-11T19:04:08.048Z,98060.19
2018-10-11T19:06:37.311Z,98054.66
2018-10-11T19:09:07.858Z,98055.10
2018-10-11T19:11:36.739Z,98057.63
2018-10-11T19:14:05.929Z,98064.11
2018-10-11T19:16:35.029Z,98063.65
2018-10-11T19:19:04.295Z,98063.84
2018-10-11T19:21:34.381Z,98069.48
2018-10-11T19:24:11.982Z,98070.11
2018-10-11T19:26:41.594Z,98078.45
2018-10-11T19:29:10.778Z,98074.20
2018-10-11T19:31:41.114Z,98076.56
2018-10-11T19:34:10.190Z,98074.08
2018-10-11T19:36:39.512Z,98075.50
2018-10-11T19:39:11.842Z,98071.97
2018-10-11T19:41:40.981Z,98072.54
2018-10-11T19:44:10.935Z,98073.95
2018-10-11T19:46:40.450Z,98076.88
2018-10-11T19:49:10.526Z,98082.50
2018-10-11T19:51:39.902Z,98088.08
2018-10-11T19:54:08.903Z,98087.01
2018-10-11T19:56:38.164Z,98085.17
2018-10-11T19:59:07.254Z,98086.32
2018-10-11T20:01:36.130Z,98089.21
2018-10-11T20:04:04.974Z,98080.84
2018-10-11T20:06:34.051Z,98088.48
2018-10-11T20:09:03.808Z,98089.86
2018-10-11T20:11:33.479Z,98094.25
2018-10-11T20:14:02.650Z,98098.59
2018-10-11T20:16:32.822Z,98106.34
2018-10-11T20:19:01.689Z,98105.53
2018-10-11T20:21:31.427Z,98098.27
2018-10-11T20:24:00.534Z,98098.66
2018-10-11T20:26:29.473Z,98100.64
2018-10-11T20:28:58.959Z,98102.80
2018-10-11T20:31:28.574Z,98102.86
2018-10-11T20:33:57.398Z,98115.62
2018-10-11T20:36:27.764Z,98103.13
2018-10-11T20:39:01.308Z,98111.94
2018-10-11T20:41:31.099Z,98121.34
2018-10-11T20:44:00.303Z,98121.60
2018-10-11T20:46:29.553Z,98122.73
2018-10-11T20:48:58.510Z,98127.77
2018-10-11T20:51:28.051Z,98125.45
2018-10-11T20:53:56.903Z,98125.39
2018-10-11T20:56:25.758Z,98136.61
2018-10-11T20:58:54.732Z,98133.86
2018-10-11T21:01:23.969Z,98137.15
2018-10-11T21:03:54.348Z,98139.90
2018-10-11T21:06:23.285Z,98137.28
2018-10-11T21:08:53.535Z,98135.22
2018-10-11T21:11:22.169Z,98140.70
2018-10-11T21:13:51.809Z,98145.59
2018-10-11T21:16:20.924Z,98148.50
2018-10-11T21:18:49.842Z,98155.25
2018-10-11T21:21:18.610Z,98161.66
2018-10-11T21:23:49.063Z,98157.81
2018-10-11T21:26:18.046Z,98156.77
2018-10-11T21:28:47.124Z,98158.06
2018-10-11T21:31:16.688Z,98165.08
2018-10-11T21:33:45.535Z,98163.89
2018-10-11T21:36:15.989Z,98165.92
2018-10-11T21:38:44.931Z,98159.49
2018-10-11T21:41:13.869Z,98165.59
2018-10-11T21:43:42.539Z,98163.50
2018-10-11T21:46:11.810Z,98161.02
2018-10-11T21:48:41.964Z,98163.82
2018-10-11T21:51:11.055Z,98160.81
2018-10-11T21:53:40.444Z,98160.22
2018-10-11T21:56:09.368Z,98159.86
2018-10-11T21:58:39.108Z,98158.02
2018-10-11T22:01:14.045Z,98166.28
2018-10-11T22:03:43.049Z,98170.18
2018-10-11T22:06:12.417Z,98177.13
2018-10-11T22:08:41.441Z,98171.77
2018-10-11T22:11:11.354Z,98184.67
2018-10-11T22:13:41.909Z,98183.61
2018-10-11T22:16:11.496Z,98180.66
2018-10-11T22:18:42.349Z,98183.42
2018-10-11T22:21:12.158Z,98178.42
2018-10-11T22:23:43.703Z,98191.62
2018-10-11T22:26:13.125Z,98194.87
2018-10-11T22:28:43.283Z,98196.44
2018-10-11T22:31:13.425Z,98193.63
2018-10-11T22:33:43.608Z,98197.58
2018-10-11T22:36:13.268Z,98200.17
2018-10-11T22:38:42.971Z,98211.64
2018-10-11T22:41:12.491Z,98211.22
2018-10-11T22:43:42.091Z,98213.87
2018-10-11T22:46:12.378Z,98224.30
2018-10-11T22:48:41.762Z,98224.02
2018-10-11T22:51:11.581Z,98224.73
2018-10-11T22:53:41.334Z,98226.58
2018-10-11T22:56:10.024Z,98228.25
2018-10-11T22:58:38.914Z,98225.70
2018-10-11T23:01:08.189Z,98231.02
2018-10-11T23:03:37.027Z,98243.23
2018-10-11T23:06:05.943Z,98237.92
2018-10-11T23:08:34.902Z,98240.41
2018-10-11T23:11:03.773Z,98242.75
2018-10-11T23:13:32.508Z,98247.95
2018-10-11T23:16:01.373Z,98250.52
2018-10-11T23:18:30.112Z,98255.09
2018-10-11T23:20:58.735Z,98255.25
2018-10-11T23:23:27.923Z,98252.66
2018-10-11T23:25:57.165Z,98254.43
2018-10-11T23:28:26.033Z,98259.72
2018-10-11T23:30:55.704Z,98261.05
2018-10-11T23:33:24.832Z,98269.16
2018-10-11T23:35:53.658Z,98265.80
2018-10-11T23:38:23.413Z,98273.80
2018-10-11T23:40:52.150Z,98280.77
2018-10-11T23:43:20.845Z,98279.00
2018-10-11T23:45:49.503Z,98284.51
2018-10-11T23:48:18.209Z,98286.94
2018-10-11T23:50:47.054Z,98288.37
2018-10-11T23:53:17.294Z,98291.58
2018-10-11T23:55:46.003Z,98295.45
2018-10-11T23:58:14.705Z,98299.63
